Time;durP1;ratioP1;P1;durP2;ratioP2;P2;SDS_P1;SDS_P2;PMS_P1;PMS_P2;Temp;Humidity;BMP_temperature;BMP_pressure;BME280_temperature;BME280_humidity;BME280_pressure;Samples;Min_cycle;Max_cycle;Signal;HPM_P1;HPM_P2
2022/01/05 00:00:11;;;;;;;16.30;3.15;;;2.50;99.90;;;0.82;100.00;98767.47;4913451;28;20234;-77
2022/01/05 00:02:39;;;;;;;13.95;3.35;;;2.50;99.90;;;0.80;100.00;98764.13;4922688;28;20030;-77
2022/01/05 00:05:06;;;;;;;19.52;3.97;;;2.50;99.90;;;0.78;100.00;98758.97;4936702;28;20102;-78
2022/01/05 00:07:32;;;;;;;17.67;3.75;;;2.50;99.90;;;0.77;100.00;98754.69;4920665;28;20174;-78
2022/01/05 00:09:58;;;;;;;24.08;4.88;;;2.50;99.90;;;0.75;100.00;98756.50;4924052;28;20130;-77
2022/01/05 00:12:25;;;;;;;16.42;3.25;;;2.50;99.90;;;0.73;100.00;98747.94;4928052;28;20043;-77
2022/01/05 00:14:53;;;;;;;22.98;3.38;;;2.40;99.90;;;0.73;100.00;98736.72;4926771;28;20079;-78
2022/01/05 00:17:21;;;;;;;16.15;2.72;;;2.40;99.90;;;0.71;100.00;98741.97;4897840;28;20034;-77
2022/01/05 00:19:47;;;;;;;19.52;3.28;;;2.40;99.90;;;0.70;100.00;98729.09;4934293;28;20048;-77
2022/01/05 00:22:13;;;;;;;13.98;2.78;;;2.40;99.90;;;0.68;100.00;98736.06;4936317;28;20123;-76
2022/01/05 00:24:41;;;;;;;18.67;3.47;;;2.40;99.90;;;0.67;100.00;98736.97;4948224;28;20030;-78
2022/01/05 00:27:12;;;;;;;16.90;3.53;;;2.40;99.90;;;0.64;100.00;98734.50;4928344;28;20027;-78
2022/01/05 00:29:38;;;;;;;22.35;3.65;;;2.40;99.90;;;0.63;100.00;98728.47;4924285;28;20076;-77
2022/01/05 00:32:05;;;;;;;25.50;3.83;;;2.40;99.90;;;0.64;100.00;98731.91;4943735;28;20102;-77
2022/01/05 00:34:31;;;;;;;12.05;2.65;;;2.40;99.90;;;0.65;100.00;98729.28;4940619;28;20449;-79
2022/01/05 00:36:57;;;;;;;15.55;3.55;;;2.50;99.90;;;0.63;100.00;98725.03;4932283;28;20031;-79
2022/01/05 00:39:23;;;;;;;20.92;3.75;;;2.30;99.90;;;0.64;100.00;98735.34;4931050;28;20062;-79
2022/01/05 00:41:54;;;;;;;37.08;4.03;;;2.30;99.90;;;0.64;100.00;98730.16;4887760;28;20039;-80
2022/01/05 00:44:20;;;;;;;23.33;3.65;;;2.30;99.90;;;0.65;100.00;98723.22;4884388;28;20042;-78
2022/01/05 00:46:47;;;;;;;20.10;4.13;;;2.40;99.90;;;0.65;100.00;98736.16;4953134;28;20026;-79
2022/01/05 00:49:13;;;;;;;17.80;3.97;;;2.30;99.90;;;0.64;100.00;98739.69;4898790;28;20047;-82
2022/01/05 00:51:44;;;;;;;18.75;3.70;;;2.30;99.90;;;0.64;100.00;98752.63;4912348;28;20586;-82
2022/01/05 00:54:10;;;;;;;24.38;4.22;;;2.30;99.90;;;0.63;100.00;98745.75;4923100;28;20066;-82
2022/01/05 00:56:36;;;;;;;22.25;4.53;;;2.30;99.90;;;0.60;100.00;98749.31;4886702;28;20479;-82
2022/01/05 00:59:02;;;;;;;28.05;4.40;;;2.30;99.90;;;0.58;100.00;98749.38;4912141;28;20030;-82
2022/01/05 01:01:29;;;;;;;20.42;3.50;;;2.30;99.90;;;0.57;100.00;98750.25;4906492;28;20030;-82
2022/01/05 01:04:00;;;;;;;19.05;3.90;;;2.20;99.90;;;0.55;100.00;98746.06;4890163;28;20114;-80
2022/01/05 01:06:26;;;;;;;19.73;3.35;;;2.20;99.90;;;0.51;100.00;98750.50;4917778;28;20050;-81
2022/01/05 01:08:51;;;;;;;11.95;3.55;;;2.20;99.90;;;0.50;100.00;98748.81;4884069;28;20429;-82
2022/01/05 01:11:17;;;;;;;15.25;4.03;;;2.20;99.90;;;0.47;100.00;98745.50;4876099;28;20033;-82
2022/01/05 01:13:44;;;;;;;18.73;3.85;;;2.10;99.90;;;0.46;100.00;98742.06;4908365;28;20034;-82
2022/01/05 01:16:18;;;;;;;31.98;4.18;;;2.20;99.90;;;0.45;100.00;98734.34;4896543;28;20018;-82
2022/01/05 01:18:44;;;;;;;17.30;3.95;;;2.10;99.90;;;0.41;100.00;98733.59;4889861;28;20028;-81
2022/01/05 01:21:10;;;;;;;22.48;4.15;;;2.10;99.90;;;0.38;100.00;98744.91;4889792;28;21102;-82
2022/01/05 01:23:37;;;;;;;26.70;3.90;;;2.10;99.90;;;0.38;100.00;98733.72;4914420;28;20498;-79
2022/01/05 01:26:08;;;;;;;25.90;4.40;;;2.10;99.90;;;0.34;100.00;98734.72;4906859;28;20109;-82
2022/01/05 01:28:35;;;;;;;26.00;4.70;;;2.00;99.90;;;0.32;100.00;98739.97;4995083;28;20038;-82
2022/01/05 01:31:01;;;;;;;23.40;4.82;;;2.00;99.90;;;0.26;100.00;98735.03;4904815;28;20053;-83
2022/01/05 01:33:27;;;;;;;27.13;4.30;;;2.00;99.90;;;0.23;100.00;98739.47;5069625;22;20054;-88
2022/01/05 01:35:53;;;;;;;26.50;4.90;;;;;;;0.23;100.00;98729.09;4967860;28;20033;-87
2022/01/05 01:39:06;;;;;;;18.63;4.43;;;1.90;99.90;;;0.19;100.00;98734.41;4997272;28;20115;-88
2022/01/05 01:41:41;;;;;;;18.27;4.10;;;;;;;0.16;100.00;98734.50;4963544;28;20041;-88
2022/01/05 01:44:21;;;;;;;34.78;4.78;;;;;;;0.15;100.00;98743.19;4946036;28;20036;-88
2022/01/05 01:46:47;;;;;;;32.83;4.13;;;1.90;99.90;;;0.13;100.00;98744.13;4989637;28;24575;-88
2022/01/05 01:49:26;;;;;;;25.83;4.97;;;;;;;0.13;100.00;98737.22;4946878;28;20077;-89
2022/01/05 01:52:03;;;;;;;22.88;4.25;;;;;;;0.13;100.00;98755.34;4899740;28;20038;-88
2022/01/05 01:54:35;;;;;;;24.98;4.05;;;;;;;0.15;100.00;98753.53;4967218;28;20034;-88
2022/01/05 01:57:14;;;;;;;20.73;4.72;;;;;;;0.17;100.00;98750.88;4919157;28;20421;-88
2022/01/05 01:59:47;;;;;;;25.00;3.78;;;;;;;0.18;100.00;98752.56;4876764;28;20125;-89
2022/01/05 02:02:28;;;;;;;16.05;4.85;;;;;;;0.19;100.00;98743.91;4914613;28;20406;-88
2022/01/05 02:04:56;;;;;;;17.42;3.45;;;;;;;0.19;100.00;98738.72;4948678;23;20041;-88
2022/01/05 02:07:32;;;;;;;18.42;3.50;;;;;;;0.16;100.00;98728.50;4982646;28;20045;-88
2022/01/05 02:09:58;;;;;;;28.03;3.73;;;;;;;0.16;100.00;98739.69;4952829;28;20050;-88
2022/01/05 02:12:26;;;;;;;28.85;4.22;;;;;;;0.16;100.00;98747.44;4942234;28;20265;-87
2022/01/05 02:15:20;;;;;;;18.58;3.15;;;2.00;99.90;;;0.15;100.00;98743.19;5014161;22;20072;-88
2022/01/05 02:21:42;;;;;;;25.00;3.38;;;1.90;99.90;;;0.15;100.00;98743.19;4958373;28;20044;-88
2022/01/05 02:24:19;;;;;;;22.08;3.83;;;;;;;0.12;100.00;98743.28;5184914;22;20042;-89
2022/01/05 02:27:03;;;;;;;21.70;3.58;;;;;;;0.12;100.00;98752.78;4931038;28;20061;-88
2022/01/05 02:29:28;;;;;;;27.60;2.90;;;1.90;99.90;;;0.10;100.00;98746.81;4935557;28;20128;-88
2022/01/05 02:32:07;;;;;;;34.78;3.63;;;;;;;0.12;100.00;98750.19;4896111;28;20120;-88
2022/01/05 02:38:28;;;;;;;13.55;2.85;;;;;;;0.09;100.00;98750.31;4915302;28;20402;-87
2022/01/05 02:44:54;;;;;;;17.73;3.38;;;;;;;0.05;100.00;98754.75;4960574;23;20055;-87
2022/01/05 02:47:35;;;;;;;22.27;3.55;;;;;;;0.03;100.00;98758.31;4996403;28;20038;-86
2022/01/05 02:50:12;;;;;;;24.77;3.28;;;1.80;99.90;;;0.03;100.00;98760.88;4938081;28;20039;-87
2022/01/05 02:52:39;;;;;;;22.25;3.08;;;1.80;99.90;;;0.03;100.00;98766.91;4909461;28;20033;-88
2022/01/05 02:57:57;;;;;;;29.83;2.97;;;;;;;0.06;100.00;98771.13;4953846;28;20088;-86
2022/01/05 03:00:51;;;;;;;15.43;3.67;;;;;;;0.05;100.00;98762.50;4915621;28;20047;-86
2022/01/05 03:03:47;;;;;;;18.58;2.63;;;;;;;0.03;100.00;98771.25;4940966;23;20060;-86
2022/01/05 03:06:32;;;;;;;28.08;3.25;;;1.80;99.90;;;0.04;100.00;98771.16;4998184;28;20042;-86
2022/01/05 03:08:58;;;;;;;18.77;3.27;;;;;;;0.01;100.00;98771.28;4987869;28;20057;-86
2022/01/05 03:11:44;;;;;;;;;;;;;;;;;;;;;
2022/01/05 03:14:11;;;;;;;22.83;3.10;;;;;;;0.06;100.00;98766.78;4970440;28;20817;-86
2022/01/05 03:16:37;;;;;;;21.20;3.97;;;;;;;0.07;100.00;98762.47;4967432;28;20493;-88
2022/01/05 03:19:03;;;;;;;19.65;3.47;;;;;;;0.04;100.00;98744.44;4989867;28;20112;-86
2022/01/05 03:21:29;;;;;;;22.50;3.40;;;1.90;99.90;;;0.03;100.00;98741.03;5009179;28;20044;-85
2022/01/05 03:24:07;;;;;;;31.15;3.65;;;1.80;99.90;;;0.07;100.00;98728.84;4951034;23;20480;-86
2022/01/05 03:26:33;;;;;;;13.55;3.20;;;1.80;99.90;;;0.09;100.00;98737.38;4976106;28;20044;-86
2022/01/05 03:29:26;;;;;;;17.48;4.13;;;1.90;99.90;;;0.08;100.00;98746.03;4963045;28;20026;-86
2022/01/05 03:32:08;;;;;;;26.58;4.10;;;;;;;0.05;100.00;98744.41;4933574;28;20029;-85
2022/01/05 03:34:36;;;;;;;32.78;4.32;;;1.80;99.90;;;0.08;100.00;98754.63;4971242;28;20386;-86
2022/01/05 03:37:08;;;;;;;26.05;4.45;;;;;;;0.09;100.00;98745.16;4882871;28;20084;-85
2022/01/05 03:39:34;;;;;;;25.85;4.25;;;1.80;99.90;;;0.09;100.00;98747.75;4909491;28;20065;-87
2022/01/05 03:42:00;;;;;;;27.15;3.83;;;1.80;99.90;;;0.07;100.00;98750.38;4897689;28;21018;-88
2022/01/05 03:44:42;;;;;;;30.58;3.90;;;;;;;0.07;100.00;98754.72;4943384;23;20051;-84
2022/01/05 03:47:18;;;;;;;19.50;4.55;;;;;;;0.04;100.00;98753.03;5014291;28;20127;-85
2022/01/05 03:49:43;;;;;;;19.35;4.80;;;1.80;99.90;;;0.05;100.00;98764.28;4994919;28;20049;-84
2022/01/05 03:52:20;;;;;;;26.23;4.20;;;1.80;99.90;;;0.02;100.00;98760.03;4948140;28;20518;-85
2022/01/05 03:54:46;;;;;;;30.63;3.80;;;1.80;99.90;;;-0.01;100.00;98750.63;4957910;28;20028;-85
2022/01/05 03:57:12;;;;;;;20.75;4.40;;;;;;;-0.02;100.00;98748.13;4952787;28;20502;-85
2022/01/05 03:59:53;;;;;;;17.92;3.85;;;1.80;99.90;;;-0.03;100.00;98744.66;4984302;28;20142;-84
2022/01/05 04:02:30;;;;;;;22.83;5.32;;;;;;;-0.03;100.00;98736.06;4988196;28;20494;-84
2022/01/05 04:04:56;;;;;;;22.58;4.80;;;;;;;-0.04;100.00;98734.38;4977804;22;20417;-85
2022/01/05 04:07:22;;;;;;;25.27;5.15;;;1.70;99.90;;;-0.08;100.00;98737.97;4961207;28;20037;-86
2022/01/05 04:09:57;;;;;;;26.33;4.78;;;;;;;-0.04;100.00;98750.75;4911555;28;20046;-85
2022/01/05 04:12:39;;;;;;;15.57;5.18;;;1.70;99.90;;;-0.02;100.00;98758.47;4967113;28;20563;-86
2022/01/05 04:15:38;;;;;;;19.23;4.07;;;;;;;-0.04;100.00;98749.91;4963998;28;20110;-86
2022/01/05 04:18:10;;;;;;;21.85;4.75;;;;;;;-0.08;100.00;98750.91;4993530;28;20041;-85
2022/01/05 04:20:36;;;;;;;34.50;4.65;;;;;;;-0.11;100.00;98751.88;4943968;28;20068;-85
2022/01/05 04:23:03;;;;;;;21.33;5.07;;;;;;;-0.12;100.00;98752.75;4981375;22;20053;-85
2022/01/05 04:25:30;;;;;;;14.40;4.05;;;;;;;-0.12;100.00;98750.16;4940814;28;20450;-84
2022/01/05 04:28:06;;;;;;;20.25;4.75;;;;;;;-0.12;100.00;98751.91;4936573;28;20043;-85
2022/01/05 04:30:47;;;;;;;19.67;4.50;;;;;;;-0.13;100.00;98745.03;4886577;28;20113;-85
2022/01/05 04:33:23;;;;;;;23.67;4.70;;;1.60;99.90;;;-0.14;100.00;98744.19;4926102;28;20674;-86
2022/01/05 04:35:49;;;;;;;27.60;4.43;;;1.60;99.90;;;-0.17;100.00;98746.03;4884103;28;20121;-86
2022/01/05 04:38:16;;;;;;;22.45;4.95;;;1.60;99.90;;;-0.18;100.00;98741.78;4980083;28;20520;-85
2022/01/05 04:40:52;;;;;;;24.27;4.80;;;1.60;99.90;;;-0.20;100.00;98736.63;5003444;28;20533;-85
2022/01/05 04:43:18;;;;;;;26.83;4.80;;;;;;;-0.20;100.00;98736.63;4968215;23;20049;-85
2022/01/05 04:45:45;;;;;;;20.60;5.25;;;1.60;99.90;;;-0.21;100.00;98735.81;5004488;28;20030;-86
2022/01/05 04:48:21;;;;;;;24.05;4.63;;;;;;;-0.21;100.00;98740.97;4942788;28;20033;-86
2022/01/05 04:50:47;;;;;;;23.98;4.93;;;;;;;-0.19;100.00;98745.25;4971245;28;20042;-84
2022/01/05 04:53:13;;;;;;;23.08;4.43;;;;;;;-0.22;100.00;98749.66;4929560;28;20106;-85
2022/01/05 04:55:46;;;;;;;21.45;4.35;;;;;;;-0.21;100.00;98748.75;4922957;28;24881;-86
2022/01/05 04:58:12;;;;;;;22.45;4.00;;;;;;;-0.22;100.00;98749.66;4883596;28;20042;-86
2022/01/05 05:00:38;;;;;;;29.40;4.60;;;1.60;99.90;;;-0.24;100.00;98743.69;4922125;28;20042;-87
2022/01/05 05:03:04;;;;;;;22.30;4.88;;;1.50;99.90;;;-0.25;100.00;98756.66;4933598;22;20045;-85
2022/01/05 05:05:41;;;;;;;20.50;3.47;;;;;;;-0.25;100.00;98749.75;4981586;28;20041;-86
2022/01/05 05:08:07;;;;;;;17.30;3.45;;;;;;;-0.25;100.00;98752.31;4943646;28;20042;-87
2022/01/05 05:10:44;;;;;;;13.63;3.83;;;;;;;-0.26;100.00;98753.22;4945230;28;20053;-86
2022/01/05 05:13:26;;;;;;;27.30;4.40;;;1.60;99.90;;;-0.25;100.00;98757.50;4974033;28;20033;-85
2022/01/05 05:15:52;;;;;;;27.63;3.85;;;;;;;-0.29;100.00;98745.56;4994928;28;20037;-85
2022/01/05 05:18:18;;;;;;;27.80;4.15;;;1.50;99.90;;;-0.33;100.00;98748.31;4975865;28;20534;-87
2022/01/05 05:20:53;;;;;;;20.08;3.92;;;;;;;-0.32;100.00;98743.09;4929982;28;20038;-86
2022/01/05 05:23:19;;;;;;;22.45;3.75;;;1.50;99.90;;;-0.30;100.00;98741.31;4968364;28;20034;-86
2022/01/05 05:25:46;;;;;;;20.20;3.53;;;;;;;-0.26;100.00;98731.69;4928158;28;20026;-85
2022/01/05 05:28:21;;;;;;;24.13;3.78;;;;;;;-0.25;100.00;98731.63;4981943;28;20038;-88
2022/01/05 05:30:48;;;;;;;23.00;3.72;;;;;;;-0.21;100.00;98733.22;4960749;28;20044;-86
2022/01/05 05:33:14;;;;;;;21.25;2.97;;;;;;;-0.19;100.00;98730.59;4970029;28;20038;-87
2022/01/05 05:35:49;;;;;;;22.40;3.30;;;;;;;-0.18;100.00;98726.25;4955865;28;20352;-87
2022/01/05 05:38:15;;;;;;;16.92;2.92;;;1.60;99.90;;;-0.15;100.00;98736.47;4936115;28;20753;-87
2022/01/05 05:40:51;;;;;;;15.07;3.03;;;;;;;-0.15;100.00;98732.19;4954523;28;20034;-87
2022/01/05 05:43:20;;;;;;;22.60;2.95;;;;;;;-0.14;100.00;98740.78;4961270;28;20041;-87
2022/01/05 05:45:56;;;;;;;24.95;2.50;;;;;;;-0.16;100.00;98733.06;4987535;28;20056;-85
2022/01/05 05:48:40;;;;;;;22.52;3.15;;;;;;;-0.17;100.00;98738.28;4951317;28;20041;-86
2022/01/05 05:51:06;;;;;;;16.55;2.90;;;;;;;-0.20;100.00;98739.22;4903436;28;20084;-87
2022/01/05 05:53:46;;;;;;;22.02;3.25;;;;;;;-0.21;100.00;98756.50;4952608;28;20038;-86
2022/01/05 05:56:21;;;;;;;24.88;3.17;;;1.60;99.90;;;-0.23;100.00;98750.53;4973519;28;20097;-86
2022/01/05 05:58:47;;;;;;;23.98;2.55;;;1.50;99.90;;;-0.22;100.00;98754.81;4939504;28;20133;-86
2022/01/05 06:01:29;;;;;;;23.08;2.90;;;;;;;-0.24;100.00;98756.63;5011215;28;20042;-86
2022/01/05 06:04:04;;;;;;;23.58;3.55;;;1.60;99.90;;;-0.23;100.00;98747.94;4973944;23;20137;-86
2022/01/05 06:06:30;;;;;;;24.25;2.75;;;1.50;99.90;;;-0.25;100.00;98752.31;4963795;28;20042;-87
2022/01/05 06:08:56;;;;;;;17.90;2.65;;;;;;;-0.25;100.00;98748.91;4923905;28;20039;-87
2022/01/05 06:11:35;;;;;;;11.82;2.05;;;1.60;99.90;;;-0.22;100.00;98749.66;4932643;28;20113;-85
2022/01/05 06:14:02;;;;;;;23.35;2.67;;;;;;;-0.26;100.00;98748.06;4965000;28;20054;-88
2022/01/05 06:16:37;;;;;;;20.20;2.45;;;1.50;99.90;;;-0.26;100.00;98729.97;4935194;28;20022;-85
2022/01/05 06:19:03;;;;;;;20.73;3.42;;;;;;;-0.23;100.00;98732.44;4951792;28;20669;-86
2022/01/05 06:21:29;;;;;;;18.20;2.63;;;1.60;99.90;;;-0.22;100.00;98728.09;4950775;28;20032;-84
2022/01/05 06:24:04;;;;;;;19.13;2.30;;;1.50;99.90;;;-0.18;100.00;98734.00;4941658;23;20553;-87
2022/01/05 06:26:59;;;;;;;16.77;1.90;;;1.60;99.90;;;-0.13;100.00;98732.97;4955849;28;21822;-85
2022/01/05 06:29:25;;;;;;;19.55;1.98;;;;;;;-0.09;100.00;98733.69;4928202;28;20046;-85
2022/01/05 06:31:51;;;;;;;25.17;2.80;;;1.70;99.90;;;-0.07;100.00;98744.81;4946146;28;20053;-84
2022/01/05 06:34:17;;;;;;;14.93;2.40;;;;;;;-0.06;100.00;98729.25;4973770;28;20068;-86
2022/01/05 06:36:50;;;;;;;11.13;2.85;;;;;;;-0.04;100.00;98731.81;4938899;28;20027;-85
2022/01/05 06:39:16;;;;;;;21.35;3.05;;;;;;;0.00;100.00;98723.03;4958877;28;20033;-85
2022/01/05 06:41:42;;;;;;;14.50;2.60;;;1.80;99.90;;;0.05;100.00;98735.81;4920564;28;21435;-86
2022/01/05 06:44:08;;;;;;;18.98;2.40;;;;;;;0.06;100.00;98732.31;4953219;23;20119;-87
2022/01/05 06:46:59;;;;;;;17.65;2.55;;;1.80;99.90;;;0.11;100.00;98726.06;4938420;28;20072;-85
2022/01/05 06:49:25;;;;;;;20.45;2.67;;;1.80;99.90;;;0.15;100.00;98735.41;4950169;28;20086;-86
2022/01/05 06:51:52;;;;;;;16.85;2.20;;;;;;;0.21;100.00;98736.91;4979805;28;20077;-86
2022/01/05 06:54:18;;;;;;;22.85;2.55;;;1.90;99.90;;;0.17;100.00;98733.63;4949716;28;20489;-86
2022/01/05 06:56:53;;;;;;;15.43;2.80;;;1.90;99.90;;;0.22;100.00;98733.44;4941307;28;20037;-87
2022/01/05 06:59:19;;;;;;;14.40;2.27;;;;;;;0.19;100.00;98731.81;4918928;28;20058;-87
2022/01/05 07:01:45;;;;;;;20.20;2.88;;;2.00;99.90;;;0.23;100.00;98723.94;4927481;28;20037;-87
2022/01/05 07:04:19;;;;;;;21.00;3.45;;;2.00;99.90;;;0.20;100.00;98725.72;4946936;28;20061;-84
2022/01/05 07:06:59;;;;;;;18.80;2.03;;;2.00;99.90;;;0.25;100.00;98730.75;4901988;28;20045;-85
2022/01/05 07:09:25;;;;;;;26.33;2.90;;;;;;;0.26;100.00;98734.16;4895739;28;20065;-87
2022/01/05 07:12:05;;;;;;;23.38;3.60;;;;;;;0.29;100.00;98724.56;4930405;28;20038;-87
2022/01/05 07:14:32;;;;;;;17.88;2.25;;;2.10;99.90;;;0.30;100.00;98722.81;4940344;28;21144;-86
2022/01/05 07:17:09;;;;;;;25.75;2.53;;;;;;;0.34;100.00;98721.78;4965255;28;20064;-86
2022/01/05 07:19:35;;;;;;;12.82;2.25;;;2.10;99.90;;;0.32;100.00;98711.47;4945708;28;20037;-87
2022/01/05 07:22:11;;;;;;;19.88;2.28;;;;;;;0.37;100.00;98729.47;4913020;28;20456;-87
2022/01/05 07:24:37;;;;;;;16.13;2.25;;;2.10;99.90;;;0.36;100.00;98733.78;4934672;28;20041;-87
2022/01/05 07:27:03;;;;;;;15.93;1.70;;;2.10;99.90;;;0.33;100.00;98733.06;4955427;28;20060;-87
2022/01/05 07:29:40;;;;;;;9.48;1.90;;;2.10;99.90;;;0.35;100.00;98729.50;4964668;28;20048;-87
2022/01/05 07:32:07;;;;;;;18.35;2.40;;;2.10;99.90;;;0.37;100.00;98725.13;4941736;28;20041;-86
2022/01/05 07:34:33;;;;;;;19.50;2.65;;;2.10;99.90;;;0.39;100.00;98725.06;4912280;28;20033;-87
2022/01/05 07:37:09;;;;;;;19.50;2.17;;;;;;;0.41;100.00;98731.00;4965907;28;20474;-87
2022/01/05 07:39:37;;;;;;;23.92;2.65;;;;;;;0.44;100.00;98733.50;4998965;28;20029;-86
2022/01/05 07:42:18;;;;;;;27.20;2.58;;;2.20;99.90;;;0.50;100.00;98741.03;5004444;28;20033;-86
2022/01/05 07:44:53;;;;;;;11.77;2.90;;;;;;;0.59;100.00;98740.69;4968090;28;20049;-87
2022/01/05 07:47:21;;;;;;;18.15;2.78;;;;;;;0.66;100.00;98738.72;4960700;28;20044;-87
2022/01/05 07:49:56;;;;;;;25.95;3.80;;;2.40;99.90;;;0.75;100.00;98742.69;4958486;28;20053;-87
2022/01/05 07:52:23;;;;;;;20.92;2.60;;;;;;;0.81;100.00;98745.06;4937425;28;20041;-88
2022/01/05 07:54:51;;;;;;;16.58;2.55;;;4.50;99.90;;;0.83;100.00;98738.06;4933941;28;20036;-87
2022/01/05 07:57:23;;;;;;;23.08;2.95;;;;;;;0.90;100.00;98749.88;4956736;28;20089;-88
2022/01/05 07:59:49;;;;;;;11.95;2.17;;;;;;;0.93;100.00;98730.78;4918514;28;20030;-86
2022/01/05 08:02:15;;;;;;;16.75;2.72;;;2.60;99.90;;;0.96;100.00;98733.25;4974274;28;20497;-87
2022/01/05 08:04:53;;;;;;;12.63;2.70;;;2.70;99.90;;;1.00;100.00;98746.03;4951306;28;20061;-87
2022/01/05 08:07:19;;;;;;;25.77;3.75;;;;;;;1.10;100.00;98750.84;4940419;28;20030;-87
2022/01/05 08:09:45;;;;;;;19.45;2.30;;;2.70;99.90;;;1.12;100.00;98741.25;4967427;28;20076;-88
2022/01/05 08:12:22;;;;;;;16.45;2.05;;;;;;;1.14;100.00;98737.69;4954082;28;20041;-87
2022/01/05 08:14:48;;;;;;;14.07;1.88;;;;;;;1.16;100.00;98742.81;4975212;28;20053;-85
2022/01/05 08:17:54;;;;;;;16.17;2.10;;;;;;;1.21;100.00;98741.75;4957436;28;20068;-87
2022/01/05 08:20:20;;;;;;;13.32;2.00;;;2.90;99.90;;;1.22;100.00;98742.59;4900878;28;20032;-88
2022/01/05 08:22:47;;;;;;;17.25;2.35;;;;;;;1.29;100.00;98751.81;4884469;28;20529;-87
2022/01/05 08:25:30;;;;;;;20.20;2.83;;;3.00;99.90;;;1.31;100.00;98755.19;4882116;28;20046;-86
2022/01/05 08:28:05;;;;;;;15.20;1.92;;;3.00;99.90;;;1.43;100.00;98753.84;4895058;28;20038;-88
2022/01/05 08:30:34;;;;;;;23.40;2.63;;;3.10;99.90;;;1.43;100.00;98754.69;5042230;23;20054;-86
2022/01/05 08:33:07;;;;;;;17.60;2.55;;;;;;;1.42;100.00;98746.97;4921768;28;20038;-86
2022/01/05 08:35:34;;;;;;;24.40;2.92;;;3.00;99.90;;;1.53;100.00;98754.31;4901274;28;20491;-85
2022/01/05 08:38:01;;;;;;;14.55;2.13;;;3.10;99.90;;;1.54;100.00;98756.84;4906231;28;20026;-84
2022/01/05 08:40:52;;;;;;;20.77;2.60;;;3.10;99.90;;;1.54;100.00;98767.22;4889526;28;20042;-86
2022/01/05 08:43:19;;;;;;;20.05;2.45;;;3.10;99.90;;;1.50;100.00;98759.63;4931578;28;20680;-85
2022/01/05 08:45:46;;;;;;;21.23;2.67;;;3.10;99.90;;;1.54;100.00;98763.78;4887142;28;21515;-82
2022/01/05 08:48:20;;;;;;;12.15;2.60;;;3.10;99.90;;;1.54;100.00;98763.78;4909866;28;20030;-85
2022/01/05 08:50:47;;;;;;;13.52;2.30;;;3.20;99.90;;;1.63;100.00;98773.78;4895866;28;20490;-86
2022/01/05 08:53:13;;;;;;;20.65;2.38;;;3.20;99.90;;;1.68;100.00;98782.19;4918887;28;20602;-83
2022/01/05 08:56:00;;;;;;;16.30;2.60;;;3.20;99.90;;;1.70;100.00;98779.56;4885505;28;20038;-81
2022/01/05 08:58:26;;;;;;;13.23;2.28;;;;;;;1.73;100.00;98776.81;4872906;28;20515;-84
2022/01/05 09:00:53;;;;;;;15.93;1.98;;;3.20;99.90;;;1.71;100.00;98771.72;4906524;28;20030;-85
2022/01/05 09:03:30;;;;;;;15.57;2.25;;;3.30;99.90;;;1.68;100.00;98776.19;4875466;28;20117;-86
2022/01/05 09:05:56;;;;;;;12.05;2.30;;;3.30;99.90;;;1.73;100.00;98789.78;4889227;28;20143;-85
2022/01/05 09:08:22;;;;;;;15.45;2.60;;;3.30;99.90;;;1.70;100.00;98780.38;4884914;28;24346;-85
2022/01/05 09:10:48;;;;;;;18.55;2.35;;;3.30;99.90;;;1.70;100.00;98789.94;4896389;28;20031;-87
2022/01/05 09:13:16;;;;;;;13.32;2.08;;;3.20;99.90;;;1.70;100.00;98795.97;4853862;28;20113;-85
2022/01/05 09:15:45;;;;;;;13.85;2.22;;;3.30;99.90;;;1.76;100.00;98790.53;4880060;28;20018;-86
2022/01/05 09:18:16;;;;;;;17.88;2.88;;;3.30;99.90;;;1.79;100.00;98798.19;4907576;28;20054;-85
2022/01/05 09:20:52;;;;;;;10.45;1.88;;;3.30;99.90;;;1.83;100.00;98802.31;4898331;28;20161;-85
2022/01/05 09:23:19;;;;;;;13.27;1.95;;;3.40;99.90;;;1.94;100.00;98803.63;4862966;28;20055;-84
2022/01/05 09:25:45;;;;;;;15.70;2.65;;;3.40;99.90;;;2.05;100.00;98807.47;4880474;28;20034;-83
2022/01/05 09:28:19;;;;;;;12.02;2.10;;;3.50;99.90;;;2.09;100.00;98804.75;4887479;28;20109;-84
2022/01/05 09:30:46;;;;;;;9.82;2.40;;;;;;;2.15;100.00;98802.72;4929785;28;20041;-86
2022/01/05 09:33:38;;;;;;;14.38;1.90;;;3.60;99.90;;;2.28;100.00;98810.00;4932363;28;20038;-85
2022/01/05 09:36:22;;;;;;;16.40;3.15;;;;;;;2.41;100.00;98818.94;4895590;28;20030;-87
2022/01/05 09:41:58;;;;;;;16.13;2.17;;;;;;;2.49;100.00;98795.22;4914289;28;20036;-86
2022/01/05 09:44:52;;;;;;;13.00;2.10;;;4.00;99.90;;;2.52;100.00;98810.66;4872671;28;20042;-85
2022/01/05 09:48:04;;;;;;;13.27;2.30;;;4.00;99.90;;;2.54;100.00;98814.88;4878137;28;20398;-85
2022/01/05 09:50:44;;;;;;;14.32;2.20;;;4.10;99.90;;;2.56;100.00;98814.81;4932297;28;20638;-85
2022/01/05 09:53:13;;;;;;;22.25;2.58;;;4.10;99.90;;;2.56;100.00;98812.22;4903971;28;20401;-82
2022/01/05 09:55:39;;;;;;;19.00;2.50;;;4.10;99.90;;;2.59;100.00;98815.53;4932902;28;20022;-81
2022/01/05 09:58:11;;;;;;;13.18;2.47;;;4.20;99.90;;;2.63;100.00;98808.44;4917982;28;20085;-81
2022/01/05 10:00:41;;;;;;;19.67;2.17;;;4.20;99.90;;;2.65;100.00;98806.59;4923394;28;20026;-82
2022/01/05 10:03:09;;;;;;;16.63;2.70;;;4.20;99.90;;;2.65;100.00;98807.44;4943203;28;20080;-79
2022/01/05 10:05:38;;;;;;;18.45;2.40;;;4.30;99.90;;;2.69;100.00;98817.72;4901638;28;21875;-79
2022/01/05 10:08:08;;;;;;;16.60;2.38;;;4.30;99.90;;;2.66;100.00;98808.31;4909991;28;20027;-79
2022/01/05 10:10:37;;;;;;;13.75;2.17;;;4.30;99.90;;;2.79;100.00;98808.59;4934987;28;20054;-79
2022/01/05 10:13:06;;;;;;;14.73;2.05;;;4.40;99.90;;;2.77;100.00;98803.47;4944828;28;20025;-80
2022/01/05 10:15:33;;;;;;;16.80;2.70;;;4.40;99.90;;;2.86;100.00;98810.00;4947710;28;20053;-80
2022/01/05 10:18:37;;;;;;;16.95;2.30;;;4.40;99.90;;;2.87;100.00;98816.88;4947979;28;21485;-81
2022/01/05 10:21:07;;;;;;;18.02;2.42;;;4.40;99.90;;;2.93;100.00;98823.56;4915888;28;20033;-81
2022/01/05 10:24:06;;;;;;;13.02;2.00;;;4.50;99.90;;;2.92;100.00;98817.53;4885259;28;20549;-86
2022/01/05 10:26:46;;;;;;;23.98;2.97;;;4.40;99.90;;;2.89;100.00;98817.66;4882666;28;20034;-85
2022/01/05 10:29:56;;;;;;;12.93;2.22;;;4.50;99.90;;;2.94;100.00;98817.44;4910617;28;20057;-85
2022/01/05 10:32:24;;;;;;;20.52;2.65;;;4.50;99.90;;;2.91;100.00;98822.78;4921113;28;20044;-84
2022/01/05 10:35:23;;;;;;;15.63;2.20;;;4.50;99.90;;;2.88;100.00;98814.22;4902692;28;20064;-84
2022/01/05 10:38:15;;;;;;;20.27;3.03;;;4.50;99.90;;;2.93;100.00;98821.78;4907868;28;20057;-83
2022/01/05 10:41:41;;;;;;;18.30;2.60;;;4.50;99.90;;;2.94;100.00;98820.03;4896464;28;20037;-85
2022/01/05 10:44:24;;;;;;;19.55;2.35;;;4.50;99.90;;;2.97;100.00;98815.53;4900933;28;20035;-84
2022/01/05 10:47:01;;;;;;;26.25;2.78;;;4.50;99.90;;;3.01;100.00;98817.09;4880103;28;20045;-85
2022/01/05 10:49:40;;;;;;;24.08;2.55;;;4.60;99.90;;;3.03;100.00;98804.88;4908859;28;20096;-85
2022/01/05 10:52:35;;;;;;;19.15;2.42;;;4.60;99.90;;;3.08;100.00;98805.47;4880263;28;20068;-87
2022/01/05 10:55:19;;;;;;;16.35;2.05;;;4.70;99.90;;;3.16;100.00;98806.91;4915575;28;20057;-84
2022/01/05 10:58:12;;;;;;;13.93;2.22;;;4.70;99.90;;;3.27;100.00;98809.84;4922002;28;20032;-85
2022/01/05 11:00:53;;;;;;;17.10;2.17;;;4.80;99.90;;;3.37;100.00;98805.03;4888477;28;20031;-86
2022/01/05 11:03:47;;;;;;;14.60;2.85;;;4.80;99.90;;;3.39;100.00;98809.25;4933274;28;20120;-86
2022/01/05 11:06:26;;;;;;;19.00;2.42;;;4.90;99.90;;;3.39;100.00;98798.84;4899775;28;20071;-86
2022/01/05 11:09:09;;;;;;;9.85;2.20;;;4.90;99.90;;;3.37;100.00;98800.69;4892434;28;20033;-87
2022/01/05 11:11:49;;;;;;;16.25;2.97;;;4.90;99.90;;;3.34;100.00;98802.59;4903022;28;20079;-87
2022/01/05 11:14:43;;;;;;;11.15;2.10;;;;;;;3.36;100.00;98809.41;4888211;28;20058;-88
2022/01/05 11:17:09;;;;;;;15.23;2.33;;;4.90;99.90;;;3.42;100.00;98808.28;4879887;28;20114;-87
2022/01/05 11:19:49;;;;;;;20.83;3.05;;;5.00;99.90;;;3.50;100.00;98806.16;4888317;28;20022;-89
2022/01/05 11:22:59;;;;;;;12.43;2.08;;;;;;;3.49;100.00;98805.28;4898152;28;20038;-88
2022/01/05 11:25:09;;;;;;;18.90;2.67;;;;;;;3.45;100.00;98803.75;4863459;28;20102;-88